createdAt,value
2017-11-03T00:01:18.739Z,99.90
2017-11-03T00:03:45.464Z,99.90
2017-11-03T00:06:11.469Z,99.90
2017-11-03T00:08:37.469Z,99.90
2017-11-03T00:11:03.432Z,99.90
2017-11-03T00:13:29.426Z,99.90
2017-11-03T00:15:55.473Z,99.90
2017-11-03T00:18:21.438Z,99.90
2017-11-03T00:20:47.456Z,99.90
2017-11-03T00:23:13.429Z,99.90
2017-11-03T00:25:39.446Z,99.90
2017-11-03T00:28:06.489Z,99.90
2017-11-03T00:30:32.504Z,99.90
2017-11-03T00:32:58.498Z,99.90
2017-11-03T00:35:24.507Z,99.90
2017-11-03T00:37:51.241Z,99.90
2017-11-03T00:40:17.977Z,99.90
2017-11-03T00:42:44.724Z,99.90
2017-11-03T00:45:10.697Z,99.90
2017-11-03T00:47:36.720Z,99.90
2017-11-03T00:50:02.764Z,99.90
2017-11-03T00:52:28.745Z,99.90
2017-11-03T00:54:54.769Z,99.90
2017-11-03T00:57:20.847Z,99.90
2017-11-03T00:59:47.586Z,99.90
2017-11-03T01:02:14.317Z,99.90
2017-11-03T01:04:41.037Z,99.90
2017-11-03T01:07:07.017Z,99.90
2017-11-03T01:09:33.002Z,99.90
2017-11-03T01:11:59.752Z,99.90
2017-11-03T01:14:26.475Z,99.90
2017-11-03T01:16:53.241Z,99.90
2017-11-03T01:19:19.233Z,99.90
2017-11-03T01:21:45.208Z,99.90
2017-11-03T01:24:11.193Z,99.90
2017-11-03T01:26:37.937Z,99.90
2017-11-03T01:29:04.662Z,99.90
2017-11-03T01:31:31.432Z,99.90
2017-11-03T01:33:57.443Z,99.90
2017-11-03T01:36:23.444Z,99.90
2017-11-03T01:38:50.198Z,99.90
2017-11-03T01:41:16.257Z,99.90
2017-11-03T01:43:42.237Z,99.90
2017-11-03T01:46:08.972Z,99.90
2017-11-03T01:48:35.705Z,99.90
2017-11-03T01:51:02.433Z,99.90
2017-11-03T01:53:28.410Z,99.90
2017-11-03T01:55:54.422Z,99.90
2017-11-03T01:58:20.409Z,99.90
2017-11-03T02:00:47.137Z,99.90
2017-11-03T02:03:13.133Z,99.90
2017-11-03T02:05:39.146Z,99.90
2017-11-03T02:08:05.135Z,99.90
2017-11-03T02:10:31.433Z,99.90
2017-11-03T02:12:57.433Z,99.90
2017-11-03T02:15:23.414Z,99.90
2017-11-03T02:17:49.423Z,99.90
2017-11-03T02:20:16.134Z,99.90
2017-11-03T02:22:42.113Z,99.90
2017-11-03T02:25:08.355Z,99.90
2017-11-03T02:27:34.352Z,99.90
2017-11-03T02:30:00.374Z,99.90
2017-11-03T02:32:26.674Z,99.90
2017-11-03T02:34:53.389Z,99.90
2017-11-03T02:37:19.375Z,99.90
2017-11-03T02:39:45.417Z,99.90
2017-11-03T02:42:11.407Z,99.90
2017-11-03T02:44:37.430Z,99.90
2017-11-03T02:47:03.452Z,99.90
2017-11-03T02:49:29.463Z,99.90
2017-11-03T02:51:55.441Z,99.90
2017-11-03T02:54:21.444Z,99.90
2017-11-03T02:56:47.435Z,99.90
2017-11-03T02:59:13.426Z,99.90
2017-11-03T03:01:40.184Z,99.90
2017-11-03T03:04:06.186Z,99.90
2017-11-03T03:06:32.301Z,99.90
2017-11-03T03:08:58.317Z,99.90
2017-11-03T03:11:24.325Z,99.90
2017-11-03T03:13:50.328Z,99.90
2017-11-03T03:16:16.359Z,99.90
2017-11-03T03:18:42.351Z,99.90
2017-11-03T03:21:08.457Z,99.90
2017-11-03T03:23:34.499Z,99.90
2017-11-03T03:26:00.531Z,99.90
2017-11-03T03:28:26.637Z,99.90
2017-11-03T03:30:53.375Z,99.90
2017-11-03T03:33:20.143Z,99.90
2017-11-03T03:35:46.149Z,99.90
2017-11-03T03:38:12.156Z,99.90
2017-11-03T03:40:45.960Z,99.90
2017-11-03T03:43:12.718Z,99.90
2017-11-03T03:45:38.674Z,99.90
2017-11-03T03:48:04.692Z,99.90
2017-11-03T03:50:30.773Z,99.90
2017-11-03T03:52:56.746Z,99.90
2017-11-03T03:55:22.973Z,99.90
2017-11-03T03:57:48.959Z,99.90
2017-11-03T04:00:14.926Z,99.90
2017-11-03T04:02:40.920Z,99.90
2017-11-03T04:05:06.889Z,99.90
2017-11-03T04:07:33.593Z,99.90
2017-11-03T04:09:59.589Z,99.90
2017-11-03T04:12:25.613Z,99.90
2017-11-03T04:14:51.605Z,99.90
2017-11-03T04:17:18.316Z,99.90
2017-11-03T04:19:45.037Z,99.90
2017-11-03T04:22:11.014Z,99.90
2017-11-03T04:24:37.255Z,99.90
2017-11-03T04:27:03.237Z,99.90
2017-11-03T04:29:29.215Z,99.90
2017-11-03T04:31:55.208Z,99.90
2017-11-03T04:34:21.190Z,99.90
2017-11-03T04:36:47.181Z,99.90
2017-11-03T04:39:13.190Z,99.90
2017-11-03T04:41:39.173Z,99.90
2017-11-03T04:44:05.893Z,99.90
2017-11-03T04:46:31.912Z,99.90
2017-11-03T04:48:57.893Z,99.90
2017-11-03T04:51:23.891Z,99.90
2017-11-03T04:53:50.637Z,99.90
2017-11-03T04:56:16.605Z,99.90
2017-11-03T04:58:42.602Z,99.90
2017-11-03T05:01:08.609Z,99.90
2017-11-03T05:03:34.581Z,99.90
2017-11-03T05:06:00.557Z,99.90
2017-11-03T05:08:26.552Z,99.90
2017-11-03T05:10:53.256Z,99.90
2017-11-03T05:13:19.264Z,99.90
2017-11-03T05:15:45.272Z,99.90
2017-11-03T05:18:11.229Z,99.90
2017-11-03T05:20:37.219Z,99.90
2017-11-03T05:23:03.501Z,99.90
2017-11-03T05:25:30.211Z,99.90
2017-11-03T05:27:56.210Z,99.90
2017-11-03T05:30:22.194Z,99.90
2017-11-03T05:32:49.261Z,99.90
2017-11-03T05:35:16.246Z,99.90
2017-11-03T05:37:42.224Z,99.90
2017-11-03T05:40:08.197Z,99.90
2017-11-03T05:42:34.194Z,99.90
2017-11-03T05:45:00.183Z,99.90
2017-11-03T05:47:26.374Z,99.90
2017-11-03T05:49:52.346Z,99.90
2017-11-03T05:52:18.334Z,99.90
2017-11-03T05:54:45.181Z,99.90
2017-11-03T05:57:11.909Z,99.90
2017-11-03T05:59:37.913Z,99.90
2017-11-03T06:02:03.934Z,99.90
2017-11-03T06:04:29.914Z,99.90
2017-11-03T06:06:55.882Z,99.90
2017-11-03T06:09:21.877Z,99.90
2017-11-03T06:11:47.862Z,99.90
2017-11-03T06:14:13.932Z,99.90
2017-11-03T06:16:39.954Z,99.90
2017-11-03T06:19:05.943Z,99.90
2017-11-03T06:21:31.945Z,99.90
2017-11-03T06:23:58.679Z,99.90
2017-11-03T06:26:25.438Z,99.90
2017-11-03T06:28:51.418Z,99.90
2017-11-03T06:31:17.402Z,99.90
2017-11-03T06:33:43.395Z,99.90
2017-11-03T06:36:09.403Z,99.90
2017-11-03T06:38:36.179Z,99.90
2017-11-03T06:41:02.153Z,99.90
2017-11-03T06:43:28.143Z,99.90
2017-11-03T06:45:54.149Z,99.90
2017-11-03T06:48:20.125Z,99.90
2017-11-03T06:50:46.849Z,99.90
2017-11-03T06:53:12.865Z,99.90
2017-11-03T06:55:38.861Z,99.90
2017-11-03T06:58:04.842Z,99.90
2017-11-03T07:00:31.606Z,99.90
2017-11-03T07:02:57.584Z,99.90
2017-11-03T07:05:23.557Z,99.90
2017-11-03T07:07:49.549Z,99.90
2017-11-03T07:10:16.270Z,99.90
2017-11-03T07:12:43.003Z,99.90
2017-11-03T07:15:09.764Z,99.90
2017-11-03T07:17:36.500Z,99.90
2017-11-03T07:20:03.211Z,99.90
2017-11-03T07:22:29.201Z,99.90
2017-11-03T07:24:55.185Z,99.90
2017-11-03T07:27:21.905Z,99.90
2017-11-03T07:29:48.636Z,99.90
2017-11-03T07:32:14.622Z,99.90
2017-11-03T07:34:40.589Z,99.90
2017-11-03T07:37:08.152Z,99.90
2017-11-03T07:39:34.890Z,99.90
2017-11-03T07:42:01.605Z,99.90
2017-11-03T07:44:27.618Z,99.90
2017-11-03T07:46:53.594Z,99.90
2017-11-03T07:49:19.573Z,99.90
2017-11-03T07:51:45.578Z,99.90
2017-11-03T07:54:11.545Z,99.90
2017-11-03T07:56:38.281Z,99.90
2017-11-03T07:59:05.045Z,99.90
2017-11-03T08:01:31.020Z,99.90
2017-11-03T08:03:57.817Z,99.90
2017-11-03T08:06:23.818Z,99.90
2017-11-03T08:08:50.521Z,99.90
2017-11-03T08:11:16.505Z,99.90
2017-11-03T08:13:42.485Z,99.90
2017-11-03T08:16:09.209Z,99.90
2017-11-03T08:18:35.185Z,99.90
2017-11-03T08:21:01.357Z,99.90
2017-11-03T08:23:27.324Z,99.90
2017-11-03T08:25:53.336Z,99.90
2017-11-03T08:28:19.367Z,99.90
2017-11-03T08:30:46.065Z,99.90
2017-11-03T08:33:12.026Z,99.90
2017-11-03T08:35:38.038Z,99.90
2017-11-03T08:38:04.022Z,99.90
2017-11-03T08:40:30.003Z,99.90
2017-11-03T08:42:56.003Z,99.90
2017-11-03T08:45:29.124Z,99.90
2017-11-03T08:47:55.180Z,99.90
2017-11-03T08:50:21.182Z,99.90
2017-11-03T08:52:47.179Z,99.90
2017-11-03T08:55:13.170Z,99.90
2017-11-03T08:57:39.893Z,99.90
2017-11-03T09:00:06.615Z,99.90
2017-11-03T09:02:33.677Z,99.90
2017-11-03T09:04:59.647Z,99.90
2017-11-03T09:07:25.624Z,99.90
2017-11-03T09:09:52.597Z,99.90
2017-11-03T09:12:18.575Z,99.90
2017-11-03T09:14:44.563Z,99.90
2017-11-03T09:17:10.589Z,99.90
2017-11-03T09:19:36.570Z,99.90
2017-11-03T09:22:03.283Z,99.90
2017-11-03T09:24:29.280Z,99.90
2017-11-03T09:26:55.269Z,99.90
2017-11-03T09:29:21.258Z,99.90
2017-11-03T09:31:48.029Z,99.90
2017-11-03T09:34:14.026Z,99.90
2017-11-03T09:36:40.740Z,99.90
2017-11-03T09:39:07.092Z,99.90
2017-11-03T09:41:33.828Z,99.90
2017-11-03T09:44:00.555Z,99.90
2017-11-03T09:46:26.620Z,99.90
2017-11-03T09:48:52.621Z,99.90
2017-11-03T09:51:19.353Z,99.90
2017-11-03T09:53:46.106Z,99.90
2017-11-03T09:56:12.835Z,99.90
2017-11-03T09:58:39.579Z,99.90
2017-11-03T10:01:06.342Z,99.90
2017-11-03T10:03:32.332Z,99.90
2017-11-03T10:05:59.049Z,99.90
2017-11-03T10:08:25.077Z,99.90
2017-11-03T10:10:51.041Z,99.90
2017-11-03T10:13:17.034Z,99.90
2017-11-03T10:15:43.035Z,99.90
2017-11-03T10:18:09.025Z,99.90
2017-11-03T10:20:35.013Z,99.90
2017-11-03T10:23:01.751Z,99.90
2017-11-03T10:25:28.477Z,99.90
2017-11-03T10:27:54.460Z,99.90
2017-11-03T10:30:20.427Z,99.90
2017-11-03T10:32:47.138Z,99.90
2017-11-03T10:35:13.133Z,99.90
2017-11-03T10:37:39.112Z,99.90
2017-11-03T10:40:05.839Z,99.90
2017-11-03T10:42:32.579Z,99.90
2017-11-03T10:44:58.565Z,99.90
2017-11-03T10:47:24.533Z,99.90
2017-11-03T10:49:51.271Z,99.90
2017-11-03T10:52:17.995Z,99.90
2017-11-03T10:54:44.336Z,99.90
2017-11-03T10:57:11.069Z,99.90
2017-11-03T10:59:37.046Z,99.90
2017-11-03T11:02:04.149Z,99.90
2017-11-03T11:04:30.879Z,99.90
2017-11-03T11:06:56.853Z,99.90
2017-11-03T11:09:23.132Z,99.90
2017-11-03T11:11:49.845Z,99.90
2017-11-03T11:14:15.822Z,99.90
2017-11-03T11:16:41.821Z,99.90
2017-11-03T11:19:08.546Z,99.90
2017-11-03T11:21:34.502Z,99.90
2017-11-03T11:24:00.501Z,99.90
2017-11-03T11:26:27.209Z,99.90
2017-11-03T11:28:53.198Z,99.90
2017-11-03T11:31:19.194Z,99.90
2017-11-03T11:33:45.922Z,99.90
2017-11-03T11:36:12.657Z,99.90
2017-11-03T11:38:39.429Z,99.90
2017-11-03T11:41:05.413Z,99.90
2017-11-03T11:43:31.392Z,99.90
2017-11-03T11:45:57.390Z,99.90
2017-11-03T11:48:23.374Z,99.90
2017-11-03T11:50:49.350Z,99.90
2017-11-03T11:53:15.350Z,99.90
2017-11-03T11:55:41.350Z,99.90
2017-11-03T11:58:08.066Z,99.90
2017-11-03T12:00:34.092Z,99.90
2017-11-03T12:03:00.073Z,99.90
2017-11-03T12:05:26.054Z,99.90
2017-11-03T12:07:53.063Z,99.90
2017-11-03T12:10:19.038Z,99.90
2017-11-03T12:12:45.762Z,99.90
2017-11-03T12:15:12.490Z,99.90
2017-11-03T12:17:38.449Z,99.90
2017-11-03T12:20:04.441Z,99.90
2017-11-03T12:22:31.181Z,99.90
2017-11-03T12:24:57.900Z,99.90
2017-11-03T12:27:24.862Z,99.90
2017-11-03T12:29:51.571Z,99.90
2017-11-03T12:32:17.540Z,99.90
2017-11-03T12:34:44.598Z,99.90
2017-11-03T12:37:10.634Z,99.90
2017-11-03T12:39:36.646Z,99.90
2017-11-03T12:42:02.640Z,99.90
2017-11-03T12:44:29.381Z,99.90
2017-11-03T12:46:56.117Z,99.90
2017-11-03T12:49:22.863Z,99.90
2017-11-03T12:51:49.583Z,99.90
2017-11-03T12:54:16.314Z,99.90
2017-11-03T12:56:42.315Z,99.90
2017-11-03T12:59:08.299Z,99.90
2017-11-03T13:01:34.266Z,99.90
2017-11-03T13:04:00.283Z,99.90
2017-11-03T13:06:26.263Z,99.90
2017-11-03T13:08:52.262Z,99.90
2017-11-03T13:11:18.501Z,99.90
2017-11-03T13:13:45.225Z,99.90
2017-11-03T13:16:11.207Z,99.90
2017-11-03T13:18:37.488Z,99.90
2017-11-03T13:21:04.198Z,99.90
2017-11-03T13:23:30.478Z,99.90
2017-11-03T13:25:56.898Z,99.90
2017-11-03T13:28:22.881Z,99.90
2017-11-03T13:30:48.884Z,99.90
2017-11-03T13:33:14.890Z,99.90
2017-11-03T13:35:40.884Z,99.90
2017-11-03T13:38:06.870Z,99.90
2017-11-03T13:40:32.869Z,99.90
2017-11-03T13:42:58.845Z,99.90
2017-11-03T13:45:25.600Z,99.90
2017-11-03T13:47:51.556Z,99.90
2017-11-03T13:50:17.552Z,99.80
2017-11-03T13:52:43.552Z,99.80
2017-11-03T13:55:10.269Z,99.80
2017-11-03T13:57:36.238Z,99.80
2017-11-03T14:00:02.262Z,99.90
2017-11-03T14:02:28.221Z,99.70
2017-11-03T14:04:54.228Z,99.80
2017-11-03T14:07:20.236Z,99.60
2017-11-03T14:09:46.214Z,99.50
2017-11-03T14:12:12.932Z,99.40
2017-11-03T14:14:39.694Z,99.60
2017-11-03T14:17:06.414Z,99.90
2017-11-03T14:19:33.150Z,99.70
2017-11-03T14:21:59.158Z,99.70
2017-11-03T14:24:25.277Z,99.70
2017-11-03T14:26:51.297Z,99.70
2017-11-03T14:29:17.292Z,99.60
2017-11-03T14:31:43.269Z,99.90
2017-11-03T14:34:09.259Z,99.90
2017-11-03T14:36:35.524Z,99.70
2017-11-03T14:39:02.258Z,99.70
2017-11-03T14:41:29.054Z,99.90
2017-11-03T14:43:55.057Z,99.70
2017-11-03T14:46:21.056Z,99.70
2017-11-03T14:48:47.814Z,99.50
2017-11-03T14:51:13.910Z,99.50
2017-11-03T14:53:40.662Z,99.50
2017-11-03T14:56:07.379Z,99.70
2017-11-03T14:58:33.366Z,99.70
2017-11-03T15:00:59.340Z,99.90
2017-11-03T15:03:26.054Z,99.80
2017-11-03T15:05:52.076Z,99.80
2017-11-03T15:08:18.089Z,99.60
2017-11-03T15:10:44.097Z,99.70
2017-11-03T15:13:10.080Z,99.70
2017-11-03T15:15:36.059Z,99.70
2017-11-03T15:18:02.053Z,99.70
2017-11-03T15:20:28.334Z,99.70
2017-11-03T15:22:55.182Z,99.90
2017-11-03T15:25:21.919Z,99.90
2017-11-03T15:27:48.710Z,99.90
2017-11-03T15:30:14.714Z,99.90
2017-11-03T15:32:40.704Z,99.90
2017-11-03T15:35:07.443Z,99.90
2017-11-03T15:37:34.149Z,99.90
2017-11-03T15:40:00.135Z,99.90
2017-11-03T15:42:26.165Z,99.90
2017-11-03T15:44:52.160Z,99.90
2017-11-03T15:47:18.137Z,99.90
2017-11-03T15:49:44.402Z,99.90
2017-11-03T15:52:11.122Z,99.90
2017-11-03T15:54:37.113Z,99.90
2017-11-03T15:57:03.273Z,99.90
2017-11-03T15:59:29.270Z,99.90
2017-11-03T16:01:55.258Z,99.90
2017-11-03T16:04:21.247Z,99.90
2017-11-03T16:06:48.310Z,99.90
2017-11-03T16:09:14.314Z,99.90
2017-11-03T16:11:41.042Z,99.90
2017-11-03T16:14:07.042Z,99.90
2017-11-03T16:16:33.021Z,99.90
2017-11-03T16:18:58.997Z,99.90
2017-11-03T16:21:24.999Z,99.90
2017-11-03T16:23:51.373Z,99.90
2017-11-03T16:26:18.090Z,99.90
2017-11-03T16:28:44.103Z,99.90
2017-11-03T16:31:10.457Z,99.90
2017-11-03T16:33:44.350Z,99.90
2017-11-03T16:36:10.326Z,99.90
2017-11-03T16:38:36.349Z,99.90
2017-11-03T16:41:02.313Z,99.90
2017-11-03T16:43:28.324Z,99.90
2017-11-03T16:45:54.324Z,99.90
2017-11-03T16:48:20.318Z,99.90
2017-11-03T16:50:46.281Z,99.90
2017-11-03T16:53:12.265Z,99.90
2017-11-03T16:55:38.260Z,99.90
2017-11-03T16:58:05.012Z,99.90
2017-11-03T17:00:31.735Z,99.90
2017-11-03T17:02:58.459Z,99.90
2017-11-03T17:05:24.452Z,99.90
2017-11-03T17:07:50.432Z,99.90
2017-11-03T17:10:17.162Z,99.90
2017-11-03T17:12:44.104Z,99.90
2017-11-03T17:15:10.834Z,99.90
2017-11-03T17:17:36.821Z,99.90
2017-11-03T17:20:03.650Z,99.90
2017-11-03T17:22:29.629Z,99.90
2017-11-03T17:24:56.354Z,99.90
2017-11-03T17:27:22.334Z,99.90
2017-11-03T17:29:48.350Z,99.90
2017-11-03T17:32:14.350Z,99.90
2017-11-03T17:34:41.082Z,99.90
2017-11-03T17:37:07.797Z,99.90
2017-11-03T17:39:33.799Z,99.90
2017-11-03T17:42:00.063Z,99.90
2017-11-03T17:44:26.792Z,99.90
2017-11-03T17:46:52.817Z,99.90
2017-11-03T17:49:19.145Z,99.90
2017-11-03T17:51:45.118Z,99.90
2017-11-03T17:54:11.113Z,99.90
2017-11-03T17:56:37.130Z,99.90
2017-11-03T17:59:03.135Z,99.90
2017-11-03T18:01:29.114Z,99.90
2017-11-03T18:03:55.107Z,99.90
2017-11-03T18:06:21.378Z,99.90
2017-11-03T18:08:47.360Z,99.90
2017-11-03T18:11:13.638Z,99.90
2017-11-03T18:13:39.654Z,99.90
2017-11-03T18:16:05.641Z,99.90
2017-11-03T18:18:31.647Z,99.90
2017-11-03T18:20:57.606Z,99.90
2017-11-03T18:23:23.615Z,99.90
2017-11-03T18:25:49.650Z,99.90
2017-11-03T18:28:15.684Z,99.90
2017-11-03T18:30:41.685Z,99.90
2017-11-03T18:33:07.690Z,99.90
2017-11-03T18:35:33.678Z,99.90
2017-11-03T18:37:59.638Z,99.90
2017-11-03T18:40:25.833Z,99.90
2017-11-03T18:42:52.541Z,99.90
2017-11-03T18:45:18.545Z,99.90
2017-11-03T18:47:44.538Z,99.90
2017-11-03T18:50:10.582Z,99.90
2017-11-03T18:52:36.584Z,99.90
2017-11-03T18:55:02.561Z,99.90
2017-11-03T18:57:28.565Z,99.90
2017-11-03T18:59:54.559Z,99.90
2017-11-03T19:02:20.566Z,99.90
2017-11-03T19:04:46.606Z,99.90
2017-11-03T19:07:12.622Z,99.90
2017-11-03T19:09:38.606Z,99.90
2017-11-03T19:12:05.558Z,99.90
2017-11-03T19:14:32.273Z,99.90
2017-11-03T19:16:58.345Z,99.90
2017-11-03T19:19:24.337Z,99.90
2017-11-03T19:21:50.362Z,99.90
2017-11-03T19:24:17.234Z,99.90
2017-11-03T19:26:43.262Z,99.90
2017-11-03T19:29:09.259Z,99.90
2017-11-03T19:31:35.998Z,99.90
2017-11-03T19:34:03.045Z,99.90
2017-11-03T19:36:29.767Z,99.90
2017-11-03T19:38:55.790Z,99.90
2017-11-03T19:41:21.801Z,99.90
2017-11-03T19:43:47.772Z,99.90
2017-11-03T19:46:13.761Z,99.90
2017-11-03T19:48:40.811Z,99.90
2017-11-03T19:51:07.562Z,99.80
2017-11-03T19:53:34.295Z,99.70
2017-11-03T19:56:01.035Z,99.50
2017-11-03T19:58:27.762Z,99.90
2017-11-03T20:00:53.779Z,99.90
2017-11-03T20:03:20.527Z,99.30
2017-11-03T20:05:47.300Z,99.20
2017-11-03T20:08:13.600Z,99.30
2017-11-03T20:10:40.345Z,99.30
2017-11-03T20:13:07.105Z,99.20
2017-11-03T20:15:33.145Z,99.20
2017-11-03T20:17:59.129Z,99.30
2017-11-03T20:20:32.835Z,99.20
2017-11-03T20:22:59.576Z,99.10
2017-11-03T20:25:25.562Z,99.10
2017-11-03T20:27:51.697Z,99.30
2017-11-03T20:30:17.731Z,99.50
2017-11-03T20:32:44.611Z,99.40
2017-11-03T20:35:10.657Z,99.40
2017-11-03T20:37:36.660Z,99.40
2017-11-03T20:40:02.689Z,99.30
2017-11-03T20:42:28.716Z,99.70
2017-11-03T20:44:55.003Z,99.80
2017-11-03T20:47:21.743Z,99.70
2017-11-03T20:49:48.460Z,99.90
2017-11-03T20:52:14.462Z,99.90
2017-11-03T20:54:40.458Z,99.90
2017-11-03T20:57:06.450Z,99.80
2017-11-03T20:59:32.666Z,99.70
2017-11-03T21:01:59.403Z,99.90
2017-11-03T21:04:33.204Z,99.80
2017-11-03T21:06:59.951Z,99.90
2017-11-03T21:09:26.748Z,99.90
2017-11-03T21:11:52.745Z,99.90
2017-11-03T21:14:19.042Z,99.90
2017-11-03T21:16:45.769Z,99.90
2017-11-03T21:19:11.750Z,99.90
2017-11-03T21:21:37.820Z,99.90
2017-11-03T21:24:04.543Z,99.90
2017-11-03T21:26:30.545Z,99.90
2017-11-03T21:28:56.553Z,99.90
2017-11-03T21:31:22.535Z,99.90
2017-11-03T21:33:49.277Z,99.90
2017-11-03T21:36:16.007Z,99.90
2017-11-03T21:38:42.750Z,99.90
2017-11-03T21:41:09.871Z,99.90
2017-11-03T21:43:35.871Z,99.90
2017-11-03T21:46:01.838Z,99.90
2017-11-03T21:48:28.578Z,99.90
2017-11-03T21:50:55.313Z,99.90
2017-11-03T21:53:22.060Z,99.90
2017-11-03T21:55:48.821Z,99.90
2017-11-03T21:58:14.826Z,99.90
2017-11-03T22:00:41.557Z,99.90
2017-11-03T22:03:08.310Z,99.90
2017-11-03T22:05:35.082Z,99.90
2017-11-03T22:08:01.081Z,99.90
2017-11-03T22:10:27.046Z,99.90
2017-11-03T22:12:53.041Z,99.90
2017-11-03T22:15:19.066Z,99.90
2017-11-03T22:17:45.049Z,99.90
2017-11-03T22:20:11.781Z,99.90
2017-11-03T22:22:38.649Z,99.90
2017-11-03T22:25:04.678Z,99.90
2017-11-03T22:27:30.688Z,99.90
2017-11-03T22:29:57.005Z,99.90
2017-11-03T22:32:23.733Z,99.90
2017-11-03T22:34:49.701Z,99.90
2017-11-03T22:37:15.758Z,99.90
2017-11-03T22:39:41.754Z,99.90
2017-11-03T22:42:07.802Z,99.90
2017-11-03T22:44:34.154Z,99.90
2017-11-03T22:47:00.872Z,99.90
2017-11-03T22:49:26.864Z,99.90
2017-11-03T22:51:53.148Z,99.90
2017-11-03T22:54:19.877Z,99.90
2017-11-03T22:56:45.846Z,99.90
2017-11-03T22:59:12.138Z,99.90
2017-11-03T23:01:38.897Z,99.90
2017-11-03T23:04:04.906Z,99.90
2017-11-03T23:06:31.645Z,99.90
2017-11-03T23:08:58.385Z,99.90
2017-11-03T23:11:24.366Z,99.90
2017-11-03T23:13:50.363Z,99.90
2017-11-03T23:16:16.338Z,99.90
2017-11-03T23:18:42.342Z,99.90
2017-11-03T23:21:08.346Z,99.90
2017-11-03T23:23:34.337Z,99.90
2017-11-03T23:26:00.311Z,99.90
2017-11-03T23:28:26.325Z,99.90
2017-11-03T23:30:52.306Z,99.90
2017-11-03T23:33:18.298Z,99.90
2017-11-03T23:35:45.027Z,99.90
2017-11-03T23:38:11.031Z,99.90
2017-11-03T23:40:36.998Z,99.90
2017-11-03T23:43:03.003Z,99.90
2017-11-03T23:45:29.723Z,99.90
2017-11-03T23:47:55.713Z,99.90
2017-11-03T23:50:21.781Z,99.90
2017-11-03T23:52:47.755Z,99.90
2017-11-03T23:55:13.786Z,99.90
2017-11-03T23:57:39.975Z,99.90
